メインページ
METAR-TAF:

METAR-TAF

空港 :

熊本, 日本

熊本空港

緯度: 32-50N, 経度: 130-51E, 海抜: 193m

現時点の気象観測

当レポートは50分前の23:00(UTC)に作成
北/北東の風 11kt
気温 5°C
湿度 87%
気圧 1022 hPa
視程10km以上
高度500ftの雲はほとんどない
高度4000ftの千切れ雲あり
高度6000ftの千切れ雲あり
弱いにわか雨

METAR: RJFT 182300Z 03011KT 9999 -SHRA FEW005 BKN040 BKN060 05/03 Q1022

時間: 08:50 (23:50 UTC)

予報

当レポートは39分前の23:11(UTC)に作成
予報は19日の 00時(UTC)から 20日の 06時(UTC)まで有効
北東の風 12kt
視程: 8000m
高度1000ftの雲はほとんどない
高度1500ftの雲は散在している
高度2500ftの千切れ雲あり
弱いにわか雨
19日の 02時(UTC)から 19日の 09時(UTC)まで一時的に
視程: 4000m
弱いにわか雨, 靄
19日の 09時(UTC)から 19日の 15時(UTC)まで一時的に
視程: 4000m
高度300ftの雲はほとんどない
高度800ftの千切れ雲あり
高度1500ftの千切れ雲あり
弱いにわか雨, 靄
19日の 18時(UTC)から 20日の 00時(UTC)まで一時的に
視程: 4000m

TAF: RJFT 182311Z 1900/2006 04012KT 8000 -SHRA FEW010 SCT015 BKN025 TEMPO 1902/1909 4000 -SHRA BR TEMPO 1909/1915 4000 -SHRA BR FEW003 BKN008 BKN015 TEMPO 1918/2000 4000 BR

4,000以上の空港の気象観測と天気予報(METAR報とTAF報)

利用可能な観測所は地図上に黄色い丸と赤い丸で示す。

丸の上にカーソルを重ねると観測所名を参照できる。

次にクリックすると気象観測と天気予報を参照できる。

マップの切り替え:黒色「×」印の緑ボタンをクリックして拡大、「-」印の緑ボタンをクリックして縮小、緑色の三角印をクリックして隣りの地図に切り替え


METAR-TAF: